createdAt,value
2023-05-19T00:02:34.010Z,1.80
2023-05-19T00:06:47.814Z,2.00
2023-05-19T00:11:22.126Z,4.50
2023-05-19T00:16:11.925Z,1.70
2023-05-19T00:20:42.000Z,1.40
2023-05-19T00:25:06.254Z,1.60
2023-05-19T00:29:51.813Z,1.60
2023-05-19T00:34:18.918Z,1.70
2023-05-19T00:38:51.874Z,1.70
2023-05-19T00:43:32.955Z,1.80
2023-05-19T00:48:13.881Z,1.80
2023-05-19T00:57:56.614Z,2.10
2023-05-19T01:02:25.548Z,1.70
2023-05-19T01:07:00.375Z,1.90
2023-05-19T01:16:20.326Z,1.90
2023-05-19T01:21:20.872Z,1.90
2023-05-19T01:25:56.914Z,1.60
2023-05-19T01:30:26.315Z,2.00
2023-05-19T01:35:09.539Z,2.00
2023-05-19T01:39:48.236Z,2.20
2023-05-19T01:44:22.807Z,1.80
2023-05-19T01:49:01.884Z,2.30
2023-05-19T01:53:58.571Z,2.30
2023-05-19T01:58:43.625Z,2.20
2023-05-19T02:03:23.097Z,2.30
2023-05-19T02:08:15.125Z,1.90
2023-05-19T02:12:45.002Z,2.00
2023-05-19T02:17:49.056Z,1.90
2023-05-19T02:22:12.431Z,4.00
2023-05-19T02:26:48.611Z,2.20
2023-05-19T02:31:21.504Z,2.20
2023-05-19T02:35:47.679Z,2.40
2023-05-19T02:40:15.220Z,1.60
2023-05-19T02:44:54.116Z,1.60
2023-05-19T02:54:25.142Z,2.10
2023-05-19T02:58:58.436Z,2.00
2023-05-19T03:09:01.065Z,2.00
2023-05-19T03:13:23.293Z,2.50
2023-05-19T03:22:45.711Z,2.50
2023-05-19T03:27:24.805Z,2.30
2023-05-19T03:32:04.013Z,2.10
2023-05-19T03:37:00.156Z,2.30
2023-05-19T03:41:22.971Z,2.30
2023-05-19T03:45:52.950Z,2.20
2023-05-19T03:50:16.263Z,1.90
2023-05-19T03:54:47.998Z,2.00
2023-05-19T03:59:11.926Z,3.00
2023-05-19T04:03:37.960Z,2.50
2023-05-19T04:08:39.472Z,2.10
2023-05-19T04:13:18.660Z,2.10
2023-05-19T04:17:43.656Z,2.40
2023-05-19T04:22:25.779Z,3.90
2023-05-19T04:26:55.661Z,5.30
2023-05-19T04:31:20.732Z,4.10
2023-05-19T04:35:52.261Z,4.50
2023-05-19T04:40:20.363Z,6.50
2023-05-19T04:44:59.177Z,5.50
2023-05-19T04:49:38.136Z,6.30
2023-05-19T04:54:08.276Z,5.80
2023-05-19T04:58:39.696Z,5.10
2023-05-19T05:03:29.155Z,4.60
2023-05-19T05:07:53.207Z,8.20
2023-05-19T05:12:59.890Z,4.20
2023-05-19T05:17:26.204Z,4.30
2023-05-19T05:21:59.517Z,4.10
2023-05-19T05:26:27.239Z,3.70
2023-05-19T05:30:52.382Z,3.60
2023-05-19T05:35:23.045Z,4.00
2023-05-19T05:39:46.941Z,3.90
2023-05-19T05:44:16.773Z,4.30
2023-05-19T05:48:25.632Z,5.10
2023-05-19T05:52:52.752Z,4.60
2023-05-19T05:57:19.261Z,4.80
2023-05-19T06:01:45.428Z,4.60
2023-05-19T06:06:09.654Z,4.00
2023-05-19T06:10:34.887Z,4.70
2023-05-19T06:15:01.527Z,4.40
2023-05-19T06:19:37.661Z,4.10
2023-05-19T06:24:08.635Z,4.20
2023-05-19T06:28:33.574Z,3.20
2023-05-19T06:32:58.648Z,3.60
2023-05-19T06:37:28.128Z,3.00
2023-05-19T06:41:56.259Z,3.40
2023-05-19T06:46:20.353Z,3.40
2023-05-19T06:50:48.721Z,3.50
2023-05-19T06:55:20.535Z,3.00
2023-05-19T06:59:46.700Z,2.90
2023-05-19T07:04:13.560Z,3.30
2023-05-19T07:08:38.858Z,3.10
2023-05-19T07:17:11.549Z,2.90
2023-05-19T07:21:36.514Z,3.10
2023-05-19T07:26:00.799Z,3.30
2023-05-19T07:30:24.843Z,3.40
2023-05-19T07:34:51.945Z,3.20
2023-05-19T07:39:10.034Z,2.90
2023-05-19T07:43:33.956Z,3.10
2023-05-19T07:47:59.960Z,2.70
2023-05-19T07:52:31.008Z,2.90
2023-05-19T07:57:00.214Z,3.20
2023-05-19T08:01:24.477Z,3.10
2023-05-19T08:05:48.689Z,2.60
2023-05-19T08:10:13.627Z,2.10
2023-05-19T08:14:38.764Z,2.30
2023-05-19T08:19:09.286Z,1.80
2023-05-19T08:23:35.212Z,1.70
2023-05-19T08:32:03.816Z,2.40
2023-05-19T08:36:21.961Z,2.50
2023-05-19T08:40:51.270Z,2.70
2023-05-19T08:45:17.300Z,3.30
2023-05-19T08:49:41.904Z,2.90
2023-05-19T08:54:13.884Z,2.50
2023-05-19T08:58:48.495Z,14.10
2023-05-19T09:07:41.331Z,2.40
2023-05-19T09:12:06.439Z,2.10
2023-05-19T09:16:30.611Z,1.60
2023-05-19T09:20:55.851Z,1.80
2023-05-19T09:25:20.861Z,2.00
2023-05-19T09:29:44.717Z,2.00
2023-05-19T09:34:08.575Z,2.00
2023-05-19T09:38:32.515Z,1.70
2023-05-19T09:42:58.199Z,1.60
2023-05-19T09:47:30.962Z,1.40
2023-05-19T09:51:57.051Z,1.60
2023-05-19T09:56:15.176Z,1.50
2023-05-19T10:00:39.208Z,1.70
2023-05-19T10:05:03.244Z,1.70
2023-05-19T10:09:26.968Z,1.40
2023-05-19T10:13:51.918Z,1.90
2023-05-19T10:18:18.868Z,1.70
2023-05-19T10:22:42.950Z,1.80
2023-05-19T10:27:06.968Z,1.50
2023-05-19T10:31:31.172Z,2.00
2023-05-19T10:36:10.197Z,1.80
2023-05-19T10:56:43.227Z,1.40
2023-05-19T11:01:42.865Z,1.20
2023-05-19T11:06:09.541Z,1.30
2023-05-19T11:10:39.191Z,1.50
2023-05-19T11:15:04.071Z,1.50
2023-05-19T11:19:30.368Z,1.40
2023-05-19T11:24:04.355Z,1.30
2023-05-19T11:28:33.265Z,1.40
2023-05-19T11:32:59.401Z,1.40
2023-05-19T11:37:07.412Z,1.50
2023-05-19T11:41:31.060Z,1.30
2023-05-19T11:45:58.596Z,1.50
2023-05-19T11:50:25.206Z,1.50
2023-05-19T11:54:49.119Z,1.60
2023-05-19T11:59:07.838Z,1.60
2023-05-19T12:03:31.918Z,2.10
2023-05-19T12:07:56.025Z,1.60
2023-05-19T12:12:20.005Z,1.50
2023-05-19T12:16:44.040Z,1.50
2023-05-19T12:21:11.040Z,1.80
2023-05-19T12:25:36.301Z,1.60
2023-05-19T12:30:02.727Z,1.50
2023-05-19T12:34:26.815Z,1.60
2023-05-19T12:38:43.842Z,1.80
2023-05-19T12:43:10.741Z,1.60
2023-05-19T12:47:34.927Z,1.30
2023-05-19T12:52:03.505Z,1.20
2023-05-19T12:56:22.828Z,1.00
2023-05-19T13:00:36.764Z,1.00
2023-05-19T13:05:01.774Z,1.20
2023-05-19T13:09:25.914Z,1.20
2023-05-19T13:13:50.317Z,1.20
2023-05-19T13:18:14.332Z,1.10
2023-05-19T13:22:20.759Z,1.30
2023-05-19T13:26:44.844Z,1.30
2023-05-19T13:31:09.141Z,1.20
2023-05-19T13:35:15.757Z,1.10
2023-05-19T13:39:39.899Z,1.20
2023-05-19T13:43:45.211Z,1.30
2023-05-19T13:48:09.238Z,1.30
2023-05-19T13:52:34.249Z,1.40
2023-05-19T13:56:58.408Z,1.40
2023-05-19T14:01:22.417Z,1.30
2023-05-19T14:05:46.459Z,1.20
2023-05-19T14:10:10.421Z,1.50
2023-05-19T14:14:26.939Z,1.60
2023-05-19T14:18:50.935Z,1.40
2023-05-19T14:23:13.808Z,1.20
2023-05-19T14:27:37.646Z,1.20
2023-05-19T14:32:01.784Z,1.80
2023-05-19T14:36:25.956Z,1.40
2023-05-19T14:40:56.586Z,1.30
2023-05-19T14:46:06.327Z,1.40
2023-05-19T14:51:21.542Z,1.60
2023-05-19T14:56:28.436Z,1.50
2023-05-19T15:01:39.507Z,1.40
2023-05-19T15:06:43.351Z,1.30
2023-05-19T15:12:06.569Z,1.50
2023-05-19T15:17:11.594Z,1.50
2023-05-19T15:22:21.280Z,1.40
2023-05-19T15:27:40.677Z,1.80
2023-05-19T15:32:44.840Z,1.70
2023-05-19T15:37:52.579Z,1.70
2023-05-19T15:42:57.692Z,1.60
2023-05-19T15:48:08.237Z,1.80
2023-05-19T15:53:23.235Z,1.50
2023-05-19T15:58:43.054Z,1.80
2023-05-19T16:03:42.243Z,1.60
2023-05-19T16:08:21.812Z,1.60
2023-05-19T16:12:58.084Z,2.00
2023-05-19T16:17:23.968Z,1.40
2023-05-19T16:22:06.664Z,2.50
2023-05-19T16:26:30.605Z,1.70
2023-05-19T16:31:02.699Z,1.70
2023-05-19T16:35:34.708Z,2.00
2023-05-19T16:40:10.627Z,1.70
2023-05-19T16:44:39.979Z,1.70
2023-05-19T16:49:17.996Z,1.90
2023-05-19T16:57:46.848Z,1.70
2023-05-19T17:02:11.975Z,2.00
2023-05-19T17:06:39.068Z,1.70
2023-05-19T17:11:02.524Z,2.20
2023-05-19T17:16:11.450Z,1.60
2023-05-19T17:21:18.370Z,1.80
2023-05-19T17:26:43.336Z,1.90
2023-05-19T17:31:50.008Z,1.90
2023-05-19T17:36:55.858Z,1.80
2023-05-19T17:42:01.580Z,1.70
2023-05-19T17:46:37.777Z,2.70
2023-05-19T17:51:02.753Z,2.00
2023-05-19T17:55:28.912Z,2.50
2023-05-19T17:59:51.940Z,2.10
2023-05-19T18:04:20.044Z,2.30
2023-05-19T18:08:52.014Z,2.20
2023-05-19T18:13:18.946Z,2.00
2023-05-19T18:17:51.895Z,2.40
2023-05-19T18:22:15.105Z,2.10
2023-05-19T18:26:51.282Z,2.40
2023-05-19T18:31:19.300Z,2.30
2023-05-19T18:35:48.159Z,2.60
2023-05-19T18:40:13.141Z,2.60
2023-05-19T18:44:42.891Z,2.60
2023-05-19T18:49:55.596Z,2.10
2023-05-19T18:55:07.346Z,2.20
2023-05-19T18:59:57.440Z,2.30
2023-05-19T19:08:42.195Z,2.40
2023-05-19T19:13:15.212Z,2.20
2023-05-19T19:17:40.266Z,2.40
2023-05-19T19:21:57.255Z,2.30
2023-05-19T19:26:22.193Z,2.70
2023-05-19T19:30:53.404Z,2.40
2023-05-19T19:35:21.103Z,2.60
2023-05-19T19:39:57.062Z,2.30
2023-05-19T19:44:23.036Z,2.20
2023-05-19T19:49:07.497Z,2.80
2023-05-19T19:54:24.613Z,2.40
2023-05-19T19:59:41.082Z,2.30
2023-05-19T20:04:44.994Z,2.50
2023-05-19T20:09:47.063Z,2.60
2023-05-19T20:14:35.739Z,3.20
2023-05-19T20:19:52.808Z,2.10
2023-05-19T20:25:06.244Z,2.10
2023-05-19T20:30:18.555Z,2.40
2023-05-19T20:35:37.261Z,2.70
2023-05-19T20:40:41.503Z,2.70
2023-05-19T20:45:45.492Z,2.50
2023-05-19T20:50:59.381Z,2.40
2023-05-19T20:56:16.263Z,2.30
2023-05-19T21:01:27.046Z,2.30
2023-05-19T21:06:32.858Z,2.30
2023-05-19T21:11:46.070Z,2.50
2023-05-19T21:17:03.451Z,2.10
2023-05-19T21:22:15.428Z,2.30
2023-05-19T21:26:59.937Z,2.30
2023-05-19T21:32:07.916Z,2.10
2023-05-19T21:37:29.301Z,2.70
2023-05-19T21:42:37.810Z,2.40
2023-05-19T21:47:54.414Z,2.60
2023-05-19T21:53:08.607Z,2.50
2023-05-19T21:58:19.361Z,2.60
2023-05-19T22:02:44.405Z,2.20
2023-05-19T22:07:20.485Z,2.00
2023-05-19T22:12:04.672Z,2.20
2023-05-19T22:16:29.707Z,2.70
2023-05-19T22:21:42.568Z,3.00
2023-05-19T22:27:05.995Z,2.70
2023-05-19T22:32:11.656Z,2.50
2023-05-19T22:37:15.141Z,2.80
2023-05-19T22:42:19.079Z,2.70
2023-05-19T22:47:29.842Z,2.40
2023-05-19T22:52:36.614Z,2.80
2023-05-19T22:57:44.556Z,3.30
2023-05-19T23:02:49.522Z,3.80
2023-05-19T23:07:53.787Z,4.30
2023-05-19T23:13:10.025Z,4.40
2023-05-19T23:18:03.905Z,3.80
2023-05-19T23:22:27.876Z,3.70
2023-05-19T23:27:02.047Z,3.70
2023-05-19T23:31:37.875Z,3.50
2023-05-19T23:36:20.076Z,3.90
2023-05-19T23:46:40.112Z,3.90
2023-05-19T23:51:45.052Z,4.10
2023-05-19T23:56:51.959Z,3.80
